Terminal Aerodrome Forecast
Issued by NWS

Home | Current Version | Previous Version | Text Only | Print | Product List | Glossary On
Versions: 1 2 3 4 5 6 7 8 9 10 11 12 13 14 15
892
FTUS43 KOAX 191720
TAFSNY
TAF
KSNY 191720Z 1918/2018 25013G22KT P6SM SCT250
     FM200000 27011KT P6SM SKC=

USA.gov is the U.S. government's official web portal to all federal, state and local government web resources and services.